Antelope Valley, Nevada Weather observations

Data are for 10 minute period ending at time listed.
 Day   Time   Solar   Ave.   Ave.  Ave.  Vector  Max.   Baro.   Total    
  of    of     Rad.   Air    Rel.  Wind   Wind   Wind  Press.  Precip.   
Year   Day            Temp.  Hum.  Speed  Dir.   Gust                    
2014   (PST)  Kw/m2    F      %     mph   deg.    mph    mb.     in.     
-------------------------------------------------------------------------
 243    0:00   0.00   55.5    53    1.6    55     3.6   850.1    0.00 
 243    0:10   0.00   54.8    53    1.0    14     2.1   850.1    0.00 
 243    0:20   0.00   53.6    53    0.4   226     2.7   850.2    0.00 
 243    0:30   0.00   52.4    59    2.4   224     3.7   850.3    0.00 
 243    0:40   0.00   51.6    61    1.3   148     3.7   850.3    0.00 
 243    0:50   0.00   52.3    57    1.6   176     4.1   850.3    0.00 
 243    1:00   0.00   50.6    61    3.4   194     4.5   850.3    0.00 
 243    1:10   0.00   49.3    65    4.5   132     9.1   850.4    0.00 
 243    1:20   0.00   51.2    56    4.9   106     9.2   850.6    0.00 
 243    1:30   0.00   51.7    55    3.0   129     5.3   850.6    0.00 
 243    1:40   0.00   52.5    54    3.2   140     4.7   850.7    0.00 
 243    1:50   0.00   49.5    63    2.6   165     3.7   850.7    0.00 
 243    2:00   0.00   49.4    65    1.4   215     6.1   850.7    0.00 
 243    2:10   0.00   50.8    56    0.5   105     2.5   850.8    0.00 
 243    2:20   0.00   51.9    51    1.2   124     2.8   850.9    0.00 
 243    2:30   0.00   49.5    61    2.1   146     3.7   850.9    0.00 
 243    2:40   0.00   48.7    65    3.0   124     3.9   850.9    0.00 
 243    2:50   0.00   47.0    72    3.3    89     4.2   850.9    0.00 
 243    3:00   0.00   46.7    70    2.1   206     3.9   851.0    0.00 
 243    3:10   0.00   45.3    71    2.8   191     4.4   851.0    0.00 
 243    3:20   0.00   48.0    63    3.6   103     6.0   851.0    0.00 
 243    3:30   0.00   48.0    66    1.6    88     4.1   851.1    0.00 
 243    3:40   0.00   48.0    65    2.9   358     5.9   851.2    0.00 
 243    3:50   0.00   46.9    64    2.1   343     3.8   851.2    0.00 
 243    4:00   0.00   47.5    63    1.0    13     2.7   851.3    0.00 
 243    4:10   0.00   47.9    62    1.7    33     2.9   851.3    0.00 
 243    4:20   0.00   47.4    64    2.2    44     3.5   851.3    0.00 
 243    4:30   0.00   46.4    68    1.9   358     3.5   851.5    0.00 
 243    4:40   0.00   45.6    68    2.2   317     3.5   851.5    0.00 
 243    4:50   0.00   46.0    70    0.7   344     1.8   851.5    0.00 
 243    5:00   0.00   46.9    65    0.7    63     2.1   851.6    0.00 
 243    5:10   0.00   48.2    65    1.8    15     2.3   851.7    0.00 
 243    5:20   0.00   45.2    73    2.7   270     4.1   851.7    0.00 
 243    5:30   0.01   41.3    83    3.3   213     4.6   851.9    0.00 
 243    5:40   0.02   40.2    86    2.1   233     3.5   852.0    0.00 
 243    5:50   0.03   40.3    87    1.7   189     2.7   852.0    0.00 
 243    6:00   0.06   41.7    87    0.3   160     1.5   852.1    0.00 
 243    6:10   0.08   43.2    85    1.4   176     2.6   852.1    0.00 
 243    6:20   0.11   45.1    80    1.9   186     2.6   852.2    0.00 
 243    6:30   0.13   47.4    76    0.5   193     1.7   852.2    0.00 
 243    6:40   0.17   48.4    75    0.2   194     0.7   852.3    0.00 
 243    6:50   0.20   50.1    74    0.7   196     1.4   852.5    0.00 
 243    7:00   0.23   52.6    72    1.2   180     2.0   852.6    0.00 
 243    7:10   0.26   54.1    69    1.7   185     2.5   852.7    0.00 
 243    7:20   0.29   55.2    66    1.4   219     1.7   852.8    0.00 
 243    7:30   0.33   57.1    63    0.2    35     1.4   852.8    0.00 
 243    7:40   0.36   59.8    51    2.9    55     4.7   852.9    0.00 
 243    7:50   0.38   60.4    50    2.5    66     4.3   852.9    0.00 
 243    8:00   0.42   61.4    48    2.4    54     4.5   852.9    0.00 
 243    8:10   0.45   62.4    45    2.0    50     3.4   852.9    0.00 
 243    8:20   0.47   63.3    43    2.0    40     3.5   852.9    0.00 
 243    8:30   0.51   64.0    41    2.7    18     5.0   852.9    0.00 
 243    8:40   0.54   64.7    39    2.5    19     4.9   852.8    0.00 
 243    8:50   0.56   65.5    38    2.5    30     4.2   852.8    0.00 
 243    9:00   0.59   66.5    37    1.2    38     4.2   852.7    0.00 
 243    9:10   0.61   68.0    35    1.3     7     2.7   852.7    0.00 
 243    9:20   0.63   68.5    38    0.6   249     2.0   852.6    0.00 
 243    9:30   0.66   69.9    40    0.5   175     1.6   852.6    0.00 
 243    9:40   0.68   65.2    60    0.8   217     2.8   852.6    0.03 
 243    9:50   0.70   64.1    51    0.9   224     2.6   852.6    0.03 
 243   10:00   0.72   67.0    47    1.6   247     3.7   852.6    0.03 
 243   10:10   0.74   67.8    42    1.4   285     3.9   852.5    0.00 
 243   10:20   0.76   70.9    40    0.8   223     4.5   852.5    0.00 
 243   10:30   0.78   70.4    41    3.3   196     6.6   852.3    0.00 
 243   10:40   0.79   70.5    39    3.9   218     6.6   852.2    0.00 
 243   10:50   0.80   70.3    36    2.8   262     5.8   852.2    0.00 
 243   11:00   0.81   72.0    36    3.0   166     5.7   852.0    0.00 
 243   11:10   0.82   72.1    32    3.2   151     7.3   851.8    0.00 
 243   11:20   0.83   73.9    29    2.8    94     9.4   851.7    0.00 
 243   11:30   0.83   73.0    28    3.6    72     6.9   851.5    0.00 
 243   11:40   0.84   72.5    34    4.8   203    10.4   851.4    0.00 
 243   11:50   0.84   72.1    38    5.4   192    11.6   851.3    0.00 
 243   12:00   0.84   72.6    41    5.8   216     9.0   851.2    0.00 
 243   12:10   0.84   72.5    37    6.4   200    12.3   851.1    0.00 
 243   12:20   0.84   72.5    40    8.3   214    14.9   851.0    0.00 
 243   12:30   0.84   71.8    39    8.6   228    15.1   851.0    0.00 
 243   12:40   0.83   71.6    39   10.6   235    16.5   850.9    0.00 
 243   12:50   0.82   71.4    40   11.2   230    18.4   850.9    0.00 
 243   13:00   0.82   71.7    41   11.0   220    15.1   850.8    0.00 
 243   13:10   0.81   71.5    40   12.7   235    17.4   850.7    0.00 
 243   13:20   0.79   71.6    39   10.8   241    17.0   850.7    0.00 
 243   13:30   0.77   72.6    39    8.3   237    13.1   850.6    0.00 
 243   13:40   0.76   73.4    35    6.6   240    10.7   850.5    0.00 
 243   13:50   0.74   73.6    38    6.9   218    11.4   850.4    0.00 
 243   14:00   0.72   73.7    36    8.6   263    16.0   850.3    0.00 
 243   14:10   0.70   75.5    30    5.2   279     9.0   850.3    0.00 
 243   14:20   0.68   74.1    38    6.8   240    11.2   850.2    0.00 
 243   14:30   0.65   74.8    31    4.4   217    11.2   850.1    0.00 
 243   14:40   0.63   75.8    32    5.2   255     9.5   850.0    0.00 
 243   14:50   0.60   75.7    28    6.2   289    12.9   850.0    0.00 
 243   15:00   0.58   77.4    25    3.0   323     5.4   849.9    0.00 
 243   15:10   0.56   75.1    32    5.6   267    11.7   849.9    0.00 
 243   15:20   0.53   75.0    32    5.0   251    10.7   849.9    0.00 
 243   15:30   0.50   75.9    30    5.2   273     8.6   849.8    0.00 
 243   15:40   0.47   75.1    33    5.5   261    11.8   849.8    0.00 
 243   15:50   0.44   74.2    32    5.0   251     9.6   849.7    0.00 
 243   16:00   0.41   73.4    39    6.5   256    11.5   849.6    0.00 
 243   16:10   0.38   73.8    34    4.5   252     7.7   849.6    0.00 
 243   16:20   0.35   74.3    36    6.6   243    13.7   849.5    0.00 
 243   16:30   0.31   72.7    31    8.0   263    12.7   849.4    0.00 
 243   16:40   0.28   72.6    33    6.6   260    10.5   849.3    0.00 
 243   16:50   0.25   71.3    36    6.6   244     9.1   849.2    0.00 
 243   17:00   0.22   72.5    34    4.7   270     7.8   849.3    0.00 
 243   17:10   0.19   71.2    40    4.5   248     7.5   849.2    0.00 
 243   17:20   0.16   70.2    40    3.9   248     6.3   849.2    0.00 
 243   17:30   0.13   69.6    42    4.2   263     7.5   849.2    0.00 
 243   17:40   0.10   69.5    38    4.3   289     7.3   849.2    0.00 
 243   17:50   0.07   68.7    38    5.3   296     7.2   849.2    0.00 
 243   18:00   0.05   67.3    39    4.6   279     6.6   849.3    0.00 
 243   18:10   0.03   66.6    40    3.6   282     6.1   849.5    0.00 
 243   18:20   0.01   66.0    39    4.1   262     5.1   849.6    0.00 
 243   18:30   0.01   63.2    47    4.1   229     5.6   849.7    0.00 
 243   18:40   0.00   60.4    55    4.2   214     5.3   849.8    0.00 
 243   18:50   0.00   59.3    58    4.3   212     5.6   850.0    0.00 
 243   19:00   0.00   59.0    56    3.6   210     5.3   850.0    0.00 
 243   19:10   0.00   58.2    54    4.8   207     5.8   850.0    0.00 
 243   19:20   0.00   61.6    40    4.5   199     5.4   850.2    0.00 
 243   19:30   0.00   60.6    44    5.2   160     6.6   850.2    0.00 
 243   19:40   0.00   56.5    54    5.3   147     6.3   850.3    0.00 
 243   19:50   0.00   55.0    58    3.6   156     4.7   850.5    0.00 
 243   20:00   0.00   56.0    54    3.9   175     4.5   850.5    0.00 
 243   20:10   0.00   57.0    50    3.7   161     4.7   850.6    0.00 
 243   20:20   0.00   56.0    55    2.9   136     3.7   850.7    0.00 
 243   20:30   0.00   54.9    60    1.7   127     3.6   850.7    0.00 
 243   20:40   0.00   53.2    71    2.4   316     3.9   850.7    0.00 
 243   20:50   0.00   52.1    66    3.1   292     3.9   850.8    0.00 
 243   21:00   0.00   52.2    65    3.3    10     6.2   850.8    0.00 
 243   21:10   0.00   51.8    63    1.1    22     4.2   850.9    0.00 
 243   21:20   0.00   51.7    62    2.4    78     4.2   850.9    0.00 
 243   21:30   0.00   53.5    62    2.5    96     4.0   850.9    0.00 
 243   21:40   0.00   51.1    69    2.1   114     3.8   850.9    0.00 
 243   21:50   0.00   51.8    58    2.1   189     3.0   850.9    0.00 
 243   22:00   0.00   55.6    45    1.6   146     3.3   850.9    0.00 
 243   22:10   0.00   58.5    40    2.5   172     3.7   851.0    0.00 
 243   22:20   0.00   51.8    62    3.5   256     4.7   851.0    0.00 
 243   22:30   0.00   47.8    72    4.2   215     6.1   851.1    0.00 
 243   22:40   0.00   46.4    78    2.8   235     4.3   851.2    0.00 
 243   22:50   0.00   45.9    77    4.5   219     6.4   851.1    0.00 
 243   23:00   0.00   45.9    77    3.7   217     5.0   851.0    0.00 
 243   23:10   0.00   45.8    78    3.7   196     4.6   851.1    0.00 
 243   23:20   0.00   45.3    79    4.3   160     5.6   851.2    0.00 

Return to Antelope Valley graphs page.


Western Regional Climate Center,wrcc@dri.edu